In Rescue
 
Open Full Screen Window  High Contrast Mode
Wind Gusting 29 knots
24
May 27, 2024 3:40 PM EDT
Weather Information
Wind Direction
  290 °
Wind Speed
  24 kt (28 mph)
Wind Gust
  29 kt (33 mph)
Altimeter
29.73 in
Visibility
10 SM
Temperature
21° C
70° F
Dewpoint
14° C
57° F
Humidity
64%
Sky Condition
Scattered @ 4,100 ft
Scattered @ 3,400 ft
VFR

METAR KMRT 271940Z AUTO 29024G29KT 10SM SCT034 SCT041 21/14 A2973 RMK AO2 T02090142

FAA Disclaimer: The data displayed is for advisory purposes only and is not to be used for flight planning or operations.